NCAR-RAP Real-Time Weather Data

Output produced by METARs form (08 May 2021  02:03 UTC)
found at http://weather.rap.ucar.edu/surface/
 
KECG 080054Z 31007KT 10SM OVC065 13/08 A2988 RMK AO2 RAE03 SLP117 P0000 T01280078
KECG 072354Z 30008KT 10SM -RA OVC070 12/08 A2986 RMK AO2 RAB30 SLP110 P0000 60000 T01220078 10189 20122 51018
KECG 072254Z 30011G18KT 10SM BKN049 BKN060 OVC090 13/08 A2985 RMK AO2 SLP107 T01280083
KECG 072154Z 29017G26KT 10SM SCT050 BKN060 BKN110 16/08 A2983 RMK AO2 PK WND 28027/2143 SLP102 T01560078
KECG 072054Z 00000KT 10SM FEW055 FEW120 18/07 A2980 RMK AO2 SLP092 T01780067 56017
KECG 071954Z 05004KT 10SM BKN120 17/06 A2980 RMK AO2 SLP092 T01720061
KECG 071854Z 10009KT 10SM CLR 19/07 A2983 RMK AO2 SLP100 T01890072
KECG 071754Z 00000KT 10SM CLR 18/04 A2985 RMK AO2 SLP109 T01780044 10189 20144 56010
KECG 071654Z VRB03KT 10SM CLR 18/05 A2986 RMK AO2 SLP111 T01830050
KECG 071554Z 04006KT 10SM CLR 18/06 A2988 RMK AO2 SLP116 T01830056
KECG 071454Z 07008KT 10SM CLR 18/07 A2988 RMK AO2 SLP119 T01830067 55005
KECG 071354Z 09008KT 10SM CLR 17/07 A2988 RMK AO2 SLP118 T01720067
KECG 071254Z 08006KT 10SM CLR 16/08 A2990 RMK AO2 SLP123 T01610078
KECG 071154Z 07005KT 10SM CLR 14/09 A2990 RMK AO2 SLP124 T01440089 10144 20078 53002
KECG 071115Z 08003KT 10SM FEW002 13/11 A2989 RMK AO2 T01330106
KECG 071054Z 00000KT 10SM CLR 10/08 A2989 RMK AO2 SLP122 T01000083